createdAt,value
2019-04-01T00:01:09.684Z,63.52
2019-04-01T00:03:39.181Z,63.57
2019-04-01T00:06:08.823Z,63.83
2019-04-01T00:08:38.512Z,63.82
2019-04-01T00:11:08.105Z,63.61
2019-04-01T00:13:37.574Z,64.04
2019-04-01T00:16:07.109Z,64.25
2019-04-01T00:18:36.717Z,64.48
2019-04-01T00:21:06.339Z,64.55
2019-04-01T00:23:35.856Z,64.32
2019-04-01T00:26:05.531Z,64.55
2019-04-01T00:28:35.189Z,64.41
2019-04-01T00:31:05.384Z,64.30
2019-04-01T00:33:34.674Z,64.66
2019-04-01T00:36:03.968Z,64.29
2019-04-01T00:38:33.539Z,64.81
2019-04-01T00:41:03.777Z,64.42
2019-04-01T00:43:37.890Z,64.63
2019-04-01T00:46:07.363Z,64.37
2019-04-01T00:48:37.001Z,64.49
2019-04-01T00:51:06.629Z,64.81
2019-04-01T00:53:36.215Z,65.16
2019-04-01T00:56:05.919Z,65.10
2019-04-01T00:58:35.238Z,65.05
2019-04-01T01:01:04.938Z,65.67
2019-04-01T01:03:34.229Z,65.36
2019-04-01T01:06:03.422Z,65.38
2019-04-01T01:08:32.943Z,65.73
2019-04-01T01:11:04.166Z,65.34
2019-04-01T01:13:33.674Z,65.68
2019-04-01T01:16:03.317Z,65.67
2019-04-01T01:18:32.756Z,65.75
2019-04-01T01:21:02.234Z,65.71
2019-04-01T01:23:31.771Z,65.47
2019-04-01T01:26:01.277Z,65.41
2019-04-01T01:28:30.798Z,65.43
2019-04-01T01:31:00.297Z,65.44
2019-04-01T01:33:29.624Z,65.41
2019-04-01T01:35:59.142Z,65.22
2019-04-01T01:38:28.685Z,65.69
2019-04-01T01:40:58.204Z,66.28
2019-04-01T01:43:27.666Z,66.32
2019-04-01T01:45:57.247Z,66.14
2019-04-01T01:48:26.727Z,66.00
2019-04-01T01:50:56.513Z,66.21
2019-04-01T01:53:26.132Z,66.38
2019-04-01T01:55:55.655Z,66.17
2019-04-01T01:58:25.233Z,65.98
2019-04-01T02:00:56.379Z,65.98
2019-04-01T02:03:26.023Z,66.42
2019-04-01T02:05:55.541Z,66.74
2019-04-01T02:08:25.086Z,66.79
2019-04-01T02:10:54.619Z,66.64
2019-04-01T02:13:24.105Z,66.50
2019-04-01T02:15:53.567Z,66.58
2019-04-01T02:18:23.117Z,66.34
2019-04-01T02:20:52.653Z,66.61
2019-04-01T02:23:22.218Z,66.46
2019-04-01T02:25:51.407Z,66.34
2019-04-01T02:28:20.764Z,66.51
2019-04-01T02:30:50.127Z,66.15
2019-04-01T02:33:19.395Z,66.22
2019-04-01T02:35:48.973Z,66.07
2019-04-01T02:38:18.592Z,66.10
2019-04-01T02:40:48.215Z,65.85
2019-04-01T02:43:17.700Z,66.23
2019-04-01T02:45:47.293Z,66.58
2019-04-01T02:48:16.807Z,66.50
2019-04-01T02:50:46.425Z,66.43
2019-04-01T02:53:15.963Z,66.45
2019-04-01T02:55:45.480Z,66.82
2019-04-01T02:58:15.074Z,67.21
2019-04-01T03:00:44.764Z,67.25
2019-04-01T03:03:14.342Z,66.92
2019-04-01T03:05:43.927Z,67.13
2019-04-01T03:08:13.493Z,67.12
2019-04-01T03:10:42.985Z,67.20
2019-04-01T03:13:12.739Z,67.11
2019-04-01T03:15:42.200Z,67.67
2019-04-01T03:18:11.945Z,67.32
2019-04-01T03:20:41.483Z,67.29
2019-04-01T03:23:10.748Z,67.19
2019-04-01T03:25:40.379Z,67.09
2019-04-01T03:28:09.660Z,67.46
2019-04-01T03:30:39.854Z,66.95
2019-04-01T03:33:09.070Z,67.13
2019-04-01T03:35:38.723Z,67.40
2019-04-01T03:38:08.182Z,67.33
2019-04-01T03:40:37.661Z,67.18
2019-04-01T03:43:06.989Z,67.46
2019-04-01T03:45:39.011Z,67.18
2019-04-01T03:48:08.471Z,67.27
2019-04-01T03:50:38.024Z,67.22
2019-04-01T03:53:07.540Z,67.26
2019-04-01T03:55:37.180Z,67.42
2019-04-01T03:58:06.709Z,68.01
2019-04-01T04:00:36.445Z,67.65
2019-04-01T04:03:06.070Z,67.40
2019-04-01T04:05:35.705Z,67.45
2019-04-01T04:08:05.234Z,67.18
2019-04-01T04:10:35.205Z,67.23
2019-04-01T04:13:04.861Z,67.44
2019-04-01T04:15:34.942Z,67.22
2019-04-01T04:18:04.445Z,67.80
2019-04-01T04:20:33.933Z,67.56
2019-04-01T04:23:03.389Z,67.38
2019-04-01T04:25:32.853Z,67.65
2019-04-01T04:28:02.319Z,67.46
2019-04-01T04:30:31.874Z,67.42
2019-04-01T04:33:01.427Z,67.72
2019-04-01T04:35:31.042Z,67.75
2019-04-01T04:38:00.548Z,67.83
2019-04-01T04:40:29.929Z,67.84
2019-04-01T04:42:59.437Z,68.05
2019-04-01T04:45:29.110Z,67.96
2019-04-01T04:47:58.846Z,67.77
2019-04-01T04:50:28.837Z,67.88
2019-04-01T04:52:58.684Z,67.94
2019-04-01T04:55:27.932Z,67.78
2019-04-01T04:57:57.828Z,68.11
2019-04-01T05:00:28.369Z,68.04
2019-04-01T05:03:00.619Z,68.08
2019-04-01T05:05:30.171Z,67.99
2019-04-01T05:07:59.769Z,68.29
2019-04-01T05:10:29.017Z,68.07
2019-04-01T05:12:58.755Z,67.92
2019-04-01T05:15:28.314Z,67.87
2019-04-01T05:17:57.912Z,67.72
2019-04-01T05:20:27.926Z,67.60
2019-04-01T05:22:57.739Z,67.35
2019-04-01T05:25:28.134Z,67.04
2019-04-01T05:28:00.940Z,67.12
2019-04-01T05:30:33.744Z,66.11
2019-04-01T05:33:05.146Z,65.76
2019-04-01T05:35:36.060Z,65.20
2019-04-01T05:38:06.881Z,64.86
2019-04-01T05:40:36.494Z,64.52
2019-04-01T05:43:06.104Z,64.62
2019-04-01T05:45:35.709Z,63.80
2019-04-01T05:48:05.397Z,63.17
2019-04-01T05:50:35.033Z,62.88
2019-04-01T05:53:05.040Z,62.52
2019-04-01T05:55:35.571Z,62.14
2019-04-01T05:58:05.395Z,61.51
2019-04-01T06:00:36.623Z,61.10
2019-04-01T06:03:06.337Z,60.53
2019-04-01T06:05:36.089Z,60.03
2019-04-01T06:08:05.649Z,59.60
2019-04-01T06:10:35.434Z,56.26
2019-04-01T06:13:04.995Z,56.26
2019-04-01T06:15:34.704Z,56.33
2019-04-01T06:18:04.311Z,54.87
2019-04-01T06:20:33.910Z,53.91
2019-04-01T06:23:03.643Z,52.41
2019-04-01T06:25:33.151Z,51.42
2019-04-01T06:28:02.607Z,50.81
2019-04-01T06:30:31.883Z,50.22
2019-04-01T06:33:01.125Z,49.61
2019-04-01T06:35:30.672Z,48.95
2019-04-01T06:38:00.317Z,49.53
2019-04-01T06:40:29.702Z,49.31
2019-04-01T06:42:59.228Z,49.17
2019-04-01T06:45:28.768Z,49.32
2019-04-01T06:47:58.367Z,47.98
2019-04-01T06:50:27.990Z,48.01
2019-04-01T06:52:57.478Z,47.73
2019-04-01T06:55:27.096Z,46.67
2019-04-01T06:57:56.789Z,46.36
2019-04-01T07:00:26.358Z,47.01
2019-04-01T07:02:55.979Z,47.08
2019-04-01T07:05:25.597Z,46.31
2019-04-01T07:07:54.849Z,45.23
2019-04-01T07:10:25.092Z,44.34
2019-04-01T07:12:53.963Z,44.84
2019-04-01T07:15:23.817Z,44.48
2019-04-01T07:17:52.992Z,43.25
2019-04-01T07:20:22.692Z,42.97
2019-04-01T07:22:52.073Z,42.19
2019-04-01T07:25:21.717Z,43.11
2019-04-01T07:27:51.109Z,42.50
2019-04-01T07:30:20.924Z,41.91
2019-04-01T07:32:50.375Z,41.19
2019-04-01T07:35:20.118Z,41.61
2019-04-01T07:37:49.738Z,40.55
2019-04-01T07:40:19.289Z,41.76
2019-04-01T07:42:48.897Z,41.97
2019-04-01T07:45:18.528Z,42.36
2019-04-01T07:47:51.504Z,42.22
2019-04-01T07:50:19.421Z,41.72
2019-04-01T07:52:48.974Z,41.96
2019-04-01T07:55:18.432Z,41.58
2019-04-01T07:57:48.084Z,41.74
2019-04-01T08:00:17.760Z,42.15
2019-04-01T08:02:49.131Z,44.19
2019-04-01T08:05:18.739Z,43.04
2019-04-01T08:07:48.382Z,44.66
2019-04-01T08:10:18.095Z,43.05
2019-04-01T08:12:47.648Z,42.15
2019-04-01T08:15:17.243Z,42.15
2019-04-01T08:17:46.882Z,41.93
2019-04-01T08:20:16.802Z,42.61
2019-04-01T08:22:46.391Z,42.03
2019-04-01T08:25:15.335Z,43.07
2019-04-01T08:27:44.823Z,41.95
2019-04-01T08:30:14.677Z,41.77
2019-04-01T08:32:43.930Z,41.59
2019-04-01T08:35:13.461Z,41.46
2019-04-01T08:37:42.485Z,43.11
2019-04-01T08:40:12.474Z,44.77
2019-04-01T08:42:42.166Z,45.37
2019-04-01T08:45:12.401Z,44.52
2019-04-01T08:47:44.470Z,44.52
2019-04-01T08:50:14.468Z,42.75
2019-04-01T08:52:44.172Z,43.82
2019-04-01T08:55:13.912Z,41.44
2019-04-01T08:57:43.526Z,41.89
2019-04-01T09:00:13.677Z,45.09
2019-04-01T09:02:43.118Z,43.33
2019-04-01T09:05:13.596Z,43.29
2019-04-01T09:07:43.126Z,42.52
2019-04-01T09:10:13.088Z,45.83
2019-04-01T09:12:42.334Z,45.32
2019-04-01T09:15:12.435Z,46.13
2019-04-01T09:17:42.151Z,44.38
2019-04-01T09:20:11.844Z,44.24
2019-04-01T09:22:41.375Z,42.97
2019-04-01T09:25:11.389Z,42.34
2019-04-01T09:27:42.433Z,41.51
2019-04-01T09:30:12.423Z,41.95
2019-04-01T09:32:42.033Z,43.24
2019-04-01T09:35:11.876Z,43.28
2019-04-01T09:37:40.777Z,43.44
2019-04-01T09:40:10.888Z,44.46
2019-04-01T09:42:40.409Z,46.89
2019-04-01T09:45:10.769Z,46.28
2019-04-01T09:47:40.366Z,47.37
2019-04-01T09:50:10.712Z,45.98
2019-04-01T09:52:40.309Z,46.86
2019-04-01T09:55:10.128Z,45.96
2019-04-01T09:57:39.655Z,46.13
2019-04-01T10:00:11.536Z,45.31
2019-04-01T10:02:41.195Z,45.38
2019-04-01T10:05:11.568Z,45.90
2019-04-01T10:07:41.203Z,45.71
2019-04-01T10:10:11.265Z,45.85
2019-04-01T10:12:40.840Z,44.97
2019-04-01T10:15:12.039Z,44.89
2019-04-01T10:17:41.507Z,44.57
2019-04-01T10:20:11.369Z,44.96
2019-04-01T10:22:41.172Z,44.63
2019-04-01T10:25:10.974Z,44.86
2019-04-01T10:27:40.527Z,44.40
2019-04-01T10:30:11.827Z,44.32
2019-04-01T10:32:41.319Z,44.53
2019-04-01T10:35:11.170Z,44.10
2019-04-01T10:37:40.469Z,45.41
2019-04-01T10:40:11.431Z,45.09
2019-04-01T10:42:42.762Z,44.40
2019-04-01T10:45:12.323Z,43.75
2019-04-01T10:47:41.932Z,43.59
2019-04-01T10:50:11.908Z,44.25
2019-04-01T10:52:44.021Z,44.24
2019-04-01T10:55:13.017Z,43.61
2019-04-01T10:57:43.625Z,43.97
2019-04-01T11:00:13.340Z,43.59
2019-04-01T11:02:42.918Z,43.47
2019-04-01T11:05:12.625Z,43.99
2019-04-01T11:07:42.266Z,44.26
2019-04-01T11:10:12.248Z,43.01
2019-04-01T11:12:41.835Z,42.66
2019-04-01T11:15:15.313Z,42.31
2019-04-01T11:17:43.925Z,44.16
2019-04-01T11:20:13.819Z,43.57
2019-04-01T11:22:43.151Z,42.36
2019-04-01T11:25:13.114Z,42.34
2019-04-01T11:27:42.741Z,42.89
2019-04-01T11:30:13.880Z,42.58
2019-04-01T11:32:43.457Z,42.78
2019-04-01T11:35:13.295Z,43.08
2019-04-01T11:37:43.000Z,42.31
2019-04-01T11:40:12.933Z,42.62
2019-04-01T11:42:42.587Z,42.19
2019-04-01T11:45:11.502Z,41.79
2019-04-01T11:47:41.184Z,41.13
2019-04-01T11:50:12.621Z,41.26
2019-04-01T11:52:42.296Z,42.20
2019-04-01T11:55:11.679Z,41.69
2019-04-01T11:57:41.096Z,40.89
2019-04-01T12:00:16.160Z,41.26
2019-04-01T12:02:46.313Z,40.64
2019-04-01T12:05:16.204Z,41.27
2019-04-01T12:07:45.881Z,41.29
2019-04-01T12:10:15.534Z,40.84
2019-04-01T12:12:44.850Z,40.63
2019-04-01T12:15:14.741Z,40.07
2019-04-01T12:17:45.406Z,40.14
2019-04-01T12:20:14.783Z,40.50
2019-04-01T12:22:45.905Z,39.89
2019-04-01T12:25:15.848Z,39.84
2019-04-01T12:27:45.636Z,40.80
2019-04-01T12:30:15.869Z,40.40
2019-04-01T12:32:45.430Z,40.56
2019-04-01T12:35:15.116Z,40.26
2019-04-01T12:37:45.847Z,39.46
2019-04-01T12:40:15.599Z,39.30
2019-04-01T12:42:46.421Z,39.30
2019-04-01T12:45:16.169Z,38.76
2019-04-01T12:47:45.697Z,39.13
2019-04-01T12:50:16.918Z,39.16
2019-04-01T12:52:47.783Z,39.38
2019-04-01T12:55:17.106Z,40.02
2019-04-01T12:57:48.541Z,40.04
2019-04-01T13:00:18.180Z,40.14
2019-04-01T13:02:48.761Z,39.59
2019-04-01T13:05:18.779Z,39.45
2019-04-01T13:07:49.857Z,38.44
2019-04-01T13:10:20.168Z,38.30
2019-04-01T13:12:49.456Z,38.23
2019-04-01T13:15:19.125Z,38.06
2019-04-01T13:17:49.928Z,38.07
2019-04-01T13:20:19.584Z,38.15
2019-04-01T13:22:49.073Z,37.91
2019-04-01T13:25:18.543Z,37.86
2019-04-01T13:27:48.109Z,37.81
2019-04-01T13:30:18.996Z,37.87
2019-04-01T13:32:48.937Z,38.25
2019-04-01T13:35:18.662Z,37.86
2019-04-01T13:37:48.379Z,37.47
2019-04-01T13:40:19.634Z,37.61
2019-04-01T13:42:49.184Z,37.34
2019-04-01T13:45:18.758Z,37.96
2019-04-01T13:47:48.726Z,38.20
2019-04-01T13:50:18.987Z,37.27
2019-04-01T13:52:48.644Z,37.16
2019-04-01T13:55:18.246Z,37.13
2019-04-01T13:57:47.735Z,37.57
2019-04-01T14:00:17.658Z,37.57
2019-04-01T14:02:46.548Z,36.93
2019-04-01T14:05:16.286Z,37.22
2019-04-01T14:07:45.822Z,36.90
2019-04-01T14:10:15.863Z,36.80
2019-04-01T14:12:45.453Z,36.50
2019-04-01T14:15:15.292Z,36.72
2019-04-01T14:17:44.832Z,36.86
2019-04-01T14:20:14.566Z,36.57
2019-04-01T14:22:44.610Z,36.86
2019-04-01T14:25:16.013Z,36.87
2019-04-01T14:27:45.534Z,36.98
2019-04-01T14:30:14.924Z,36.72
2019-04-01T14:32:44.558Z,37.85
2019-04-01T14:35:14.410Z,36.88
2019-04-01T14:37:43.579Z,37.01
2019-04-01T14:40:13.497Z,36.86
2019-04-01T14:42:43.001Z,36.67
2019-04-01T14:45:12.877Z,36.66
2019-04-01T14:47:56.469Z,35.74
2019-04-01T14:50:13.766Z,35.98
2019-04-01T14:52:43.420Z,35.70
2019-04-01T14:55:13.275Z,36.03
2019-04-01T14:57:42.736Z,36.68
2019-04-01T15:00:13.808Z,36.50
2019-04-01T15:02:43.164Z,36.18
2019-04-01T15:05:13.086Z,36.12
2019-04-01T15:07:42.646Z,35.25
2019-04-01T15:10:12.875Z,35.98
2019-04-01T15:12:42.426Z,35.94
2019-04-01T15:15:12.364Z,36.26
2019-04-01T15:17:41.716Z,36.21
2019-04-01T15:20:13.715Z,35.92
2019-04-01T15:22:43.268Z,36.85
2019-04-01T15:25:14.540Z,36.65
2019-04-01T15:27:44.007Z,36.15
2019-04-01T15:30:14.258Z,36.12
2019-04-01T15:32:44.099Z,36.59
2019-04-01T15:35:13.871Z,36.92
2019-04-01T15:37:43.370Z,36.31
2019-04-01T15:40:15.294Z,35.79
2019-04-01T15:42:44.833Z,36.10
2019-04-01T15:45:14.555Z,36.20
2019-04-01T15:47:44.121Z,36.24
2019-04-01T15:50:27.732Z,36.64
2019-04-01T15:52:44.722Z,35.70
2019-04-01T15:55:14.482Z,35.91
2019-04-01T15:57:43.673Z,36.21
2019-04-01T16:00:13.564Z,36.41
2019-04-01T16:02:43.536Z,36.63
2019-04-01T16:05:12.925Z,36.94
2019-04-01T16:07:42.443Z,36.66
2019-04-01T16:10:12.207Z,37.00
2019-04-01T16:12:41.862Z,37.23
2019-04-01T16:15:11.498Z,37.07
2019-04-01T16:17:40.867Z,37.39
2019-04-01T16:20:10.771Z,37.43
2019-04-01T16:22:43.658Z,36.77
2019-04-01T16:25:13.528Z,36.36
2019-04-01T16:27:43.365Z,36.49
2019-04-01T16:30:13.058Z,36.53
2019-04-01T16:32:42.647Z,36.82
2019-04-01T16:35:11.900Z,36.55
2019-04-01T16:37:41.542Z,36.67
2019-04-01T16:40:11.451Z,36.63
2019-04-01T16:42:40.941Z,36.60
2019-04-01T16:45:13.311Z,36.77
2019-04-01T16:47:42.861Z,36.97
2019-04-01T16:50:12.770Z,37.35
2019-04-01T16:52:42.126Z,37.46
2019-04-01T16:55:11.939Z,37.62
2019-04-01T16:57:41.637Z,37.68
2019-04-01T17:00:14.497Z,37.73
2019-04-01T17:02:43.636Z,37.65
2019-04-01T17:05:14.285Z,37.59
2019-04-01T17:07:44.018Z,36.90
2019-04-01T17:10:19.408Z,37.18
2019-04-01T17:12:49.034Z,37.47
2019-04-01T17:15:18.642Z,37.68
2019-04-01T17:17:47.845Z,37.39
2019-04-01T17:20:17.757Z,37.57
2019-04-01T17:22:47.360Z,37.87
2019-04-01T17:25:16.966Z,37.74
2019-04-01T17:27:46.581Z,37.91
2019-04-01T17:30:16.391Z,37.81
2019-04-01T17:32:45.666Z,37.99
2019-04-01T17:35:15.019Z,38.36
2019-04-01T17:37:44.639Z,38.17
2019-04-01T17:40:16.898Z,38.11
2019-04-01T17:42:46.532Z,38.47
2019-04-01T17:45:21.860Z,38.60
2019-04-01T17:47:51.472Z,38.58
2019-04-01T17:50:21.068Z,38.98
2019-04-01T17:52:52.815Z,39.29
2019-04-01T17:55:22.490Z,39.68
2019-04-01T17:57:52.143Z,41.16
2019-04-01T18:00:23.541Z,41.94
2019-04-01T18:02:53.037Z,42.36
2019-04-01T18:05:22.936Z,42.82
2019-04-01T18:07:52.554Z,43.04
2019-04-01T18:10:22.187Z,43.51
2019-04-01T18:12:51.955Z,43.59
2019-04-01T18:15:21.842Z,43.65
2019-04-01T18:17:51.367Z,43.36
2019-04-01T18:20:20.852Z,43.45
2019-04-01T18:22:50.396Z,43.58
2019-04-01T18:25:20.979Z,43.81
2019-04-01T18:27:50.800Z,42.81
2019-04-01T18:30:20.928Z,43.61
2019-04-01T18:32:54.788Z,44.01
2019-04-01T18:35:21.899Z,43.72
2019-04-01T18:37:51.388Z,43.56
2019-04-01T18:40:32.039Z,43.67
2019-04-01T18:42:52.303Z,43.90
2019-04-01T18:45:22.410Z,44.18
2019-04-01T18:47:51.936Z,44.04
2019-04-01T18:50:21.611Z,44.12
2019-04-01T18:52:51.092Z,44.42
2019-04-01T18:55:20.700Z,44.56
2019-04-01T18:57:50.508Z,44.78
2019-04-01T19:00:21.773Z,45.22
2019-04-01T19:02:55.507Z,45.41
2019-04-01T19:05:24.268Z,45.44
2019-04-01T19:07:53.873Z,46.02
2019-04-01T19:10:24.002Z,45.82
2019-04-01T19:13:05.067Z,45.93
2019-04-01T19:15:28.161Z,45.90
2019-04-01T19:17:58.131Z,46.38
2019-04-01T19:20:30.415Z,46.35
2019-04-01T19:22:58.891Z,46.31
2019-04-01T19:25:28.349Z,46.29
2019-04-01T19:27:57.948Z,46.43
2019-04-01T19:30:27.691Z,46.65
2019-04-01T19:32:57.417Z,46.68
2019-04-01T19:35:26.770Z,46.77
2019-04-01T19:37:56.679Z,46.99
2019-04-01T19:40:26.500Z,47.27
2019-04-01T19:42:56.005Z,47.57
2019-04-01T19:45:25.401Z,47.67
2019-04-01T19:47:57.218Z,47.80
2019-04-01T19:50:26.323Z,47.99
2019-04-01T19:52:55.848Z,48.14
2019-04-01T19:55:25.252Z,48.43
2019-04-01T19:57:56.100Z,48.17
2019-04-01T20:00:28.385Z,48.34
2019-04-01T20:02:58.039Z,48.00
2019-04-01T20:05:27.774Z,48.17
2019-04-01T20:07:57.231Z,48.11
2019-04-01T20:10:28.362Z,48.14
2019-04-01T20:12:58.021Z,48.03
2019-04-01T20:15:27.655Z,48.25
2019-04-01T20:17:57.202Z,48.28
2019-04-01T20:20:26.859Z,48.43
2019-04-01T20:22:56.411Z,48.62
2019-04-01T20:25:26.025Z,49.18
2019-04-01T20:27:55.692Z,49.48
2019-04-01T20:30:25.406Z,49.34
2019-04-01T20:32:55.069Z,49.58
2019-04-01T20:35:24.598Z,49.56
2019-04-01T20:37:54.066Z,49.75
2019-04-01T20:40:24.314Z,49.87
2019-04-01T20:42:54.368Z,50.25
2019-04-01T20:45:23.994Z,50.25
2019-04-01T20:47:53.624Z,49.95
2019-04-01T20:50:22.925Z,49.86
2019-04-01T20:52:52.506Z,50.03
2019-04-01T20:55:22.059Z,49.98
2019-04-01T20:57:51.634Z,50.16
2019-04-01T21:00:21.293Z,49.93
2019-04-01T21:02:50.810Z,49.65
2019-04-01T21:05:20.280Z,49.98
2019-04-01T21:07:49.924Z,50.29
2019-04-01T21:10:19.680Z,50.30
2019-04-01T21:12:49.168Z,50.40
2019-04-01T21:15:22.267Z,50.48
2019-04-01T21:17:53.322Z,50.41
2019-04-01T21:20:22.331Z,50.41
2019-04-01T21:22:51.819Z,50.80
2019-04-01T21:25:21.356Z,51.04
2019-04-01T21:27:50.996Z,50.81
2019-04-01T21:30:20.615Z,50.92
2019-04-01T21:32:50.300Z,50.74
2019-04-01T21:35:19.804Z,50.81
2019-04-01T21:37:49.294Z,50.85
2019-04-01T21:40:18.914Z,50.89
2019-04-01T21:42:48.412Z,50.81
2019-04-01T21:45:17.824Z,51.21
2019-04-01T21:47:47.353Z,51.23
2019-04-01T21:50:17.087Z,51.13
2019-04-01T21:52:46.687Z,51.14
2019-04-01T21:55:16.504Z,51.48
2019-04-01T21:57:45.863Z,51.33
2019-04-01T22:00:18.114Z,51.55
2019-04-01T22:02:47.947Z,51.82
2019-04-01T22:05:17.571Z,51.90
2019-04-01T22:07:47.272Z,51.63
2019-04-01T22:10:16.141Z,51.70
2019-04-01T22:12:45.908Z,51.97
2019-04-01T22:15:15.618Z,52.14
2019-04-01T22:17:46.092Z,52.24
2019-04-01T22:20:15.703Z,52.43
2019-04-01T22:22:46.083Z,52.46
2019-04-01T22:25:15.692Z,52.58
2019-04-01T22:27:45.299Z,52.65
2019-04-01T22:30:17.090Z,52.58
2019-04-01T22:32:46.539Z,52.61
2019-04-01T22:35:16.107Z,53.23
2019-04-01T22:37:46.325Z,53.60
2019-04-01T22:40:18.016Z,53.50
2019-04-01T22:42:47.527Z,53.78
2019-04-01T22:45:16.710Z,54.00
2019-04-01T22:47:45.848Z,54.13
2019-04-01T22:50:15.432Z,54.04
2019-04-01T22:52:44.981Z,53.89
2019-04-01T22:55:14.636Z,54.35
2019-04-01T22:57:44.092Z,54.06
2019-04-01T23:00:14.049Z,54.14
2019-04-01T23:02:43.420Z,54.56
2019-04-01T23:05:13.028Z,54.34
2019-04-01T23:07:42.628Z,54.35
2019-04-01T23:10:12.466Z,54.49
2019-04-01T23:12:41.968Z,54.63
2019-04-01T23:15:11.864Z,54.78
2019-04-01T23:17:41.334Z,55.33
2019-04-01T23:20:11.207Z,55.54
2019-04-01T23:22:42.342Z,55.38
2019-04-01T23:25:12.124Z,55.57
2019-04-01T23:27:41.613Z,55.49
2019-04-01T23:30:12.265Z,55.51
2019-04-01T23:32:42.131Z,55.46
2019-04-01T23:35:12.528Z,55.58
2019-04-01T23:37:42.394Z,55.48
2019-04-01T23:40:12.514Z,55.91
2019-04-01T23:42:41.892Z,55.95
2019-04-01T23:45:12.074Z,55.45
2019-04-01T23:47:41.256Z,55.43
2019-04-01T23:50:11.070Z,55.24
2019-04-01T23:52:40.551Z,55.94
2019-04-01T23:55:11.307Z,56.06
2019-04-01T23:57:40.790Z,56.20
